Scroll down
FLIGHT INFORMATION
Federal Express (FedEx)

FDX5460

At Arrival Gate

LFPG
 VABB
DATE: 2022-07-30
GATE:  -
GATE DEPARTURE: 20:02
TAKEOFF: 20:16
DATE: 2022-07-31
GATE:  -
LANDING: 04:57
GATE ARRIVAL: 05:04
FLIGHT DATA
Crew: 
Speed: 
504 kts
Altitude: 
39,004 ft
Stage Length: 
3,776.1 nm
Block Time: 
9 hrs
Flight Time: 
8.7 hrs
Fuel Used: 
136,332 lb
Cleared Route: LFPG LANVI EPL LASAT BEGAR ELMUR RESIA LABIN PETAK PINDO AGISA ESOPO ETRUD PIVOS MES PIPEN IKARO URNIL LARKI RDS IRBAX OBUPO ULFIT VANZA LAKTO GENIV SERMA DATOK TAKSU KARIK ULINA ELETA TAMIM PETRA DEESA BOSAL LABAD NIMAR DEDGI GENON TAMRO GEXUP VUTAD LOTOK KMC BOTEP RADGI ALPOT SILBA KURKA EGREX DAROR RAMSI GASSI KOBOK DEBEN DAVRI SODAK DANOB BOTOB ROSAN KUMLA ASPAK UKUBU TOMSO NALPO SOKAK KIVUS PUSOT AMBOV DATOB LOVEM SERSA PAVAG ITBON KULBA NOLSU TONVO PURNI KUNUS ALSAS DERTO VAXIM RASKI ANKOX KARKU EXOLU VABB
TRACK DATA
50,000 ft 1,000 kts
AIRCRAFT INFO AND CUMULATIVE STATS
Aircraft Type: 
B77LF
Registration: 
SELCAL: 
MSN/LN: 
41750 / 1589
Total Flights: 
7
Total Block Time: 
57.6 hrs
Total Flight Time: 
56 hrs
Total Fuel Used: 
1,140,607 lb
DATALINK LOG | Newest first | Current as of: 2022-08-16 06:45:36
LABEL SEQUENCE CONTENT Dn/Up
QD523805:04 22.9▼ Dn
QC463304:57▼ Dn
2U1102VABB 310100Z 04003KT 2500 HZ SCT020 SCT025 28/26 Q1006 NOSIG▲ Up
2S1102VABB▼ Dn
2U3732VABB 302330Z 29004KT 2500 HZ SCT020 FEW025TCU BKN090 28/26 Q1005 NOSIG▲ Up
2S3731VABB▼ Dn
QB044620:16▼ Dn
QA503220:02 159.2▼ Dn
2U3520VOHS 301630Z 21008KT 5000 TS BKN015 FEW030CB BKN080 27/23 Q1010 TEMPO 3000 TSRA▲ Up
2U3520VABB 301630Z 29005KT 3500 HZ SCT020 SCT025 29/26 Q1007 BECMG 3000 HZ▲ Up
2U3519LFPG 301630Z 33007KT 300V360 CAVOK 29/12 Q1018 NOSIG▲ Up
2S3519LFPG VABB VOHS▼ Dn
A33518CLEARED TO VABB VIA LANV5D LANVI UN491 BEGAR Q341 RESIA LABIN PETAK PINDO AGISA ESOPO UN130 MES UL609 RDS UL995 VANZA LAKTO L324 GENIV L550 KARIK B411 ULINA UB411 DEESA Y415 LOTOK P559 DAROR P559 NALPO P559 AMBOV M322 LOVEM L562 SERSA P307 TONVO P307 VAXIM L301 RASKI L301 KARKU M638 EXOLU. SQUAWK 6661.▲ Up
B33518LFPG VABB FDX5460 N896FD ▼ Dn
Q03417[LINK ACK]▲ Up
Q03417[LINK TEST]▼ Dn


AIRCRAFT HISTORY
FLIGHT DATE FLIGHT NO. ORIGIN DESTINATION CLEARED ROUTE BLOCK TIME FLIGHT TIME FUEL USED PILOT
2022-07-30FDX5460LFPG VABB LFPG LANVI EPL LASAT BEGAR ELMUR RESIA LABIN PETAK PINDO AGISA ESOPO ETRUD PIVOS MES PIPEN IKARO URNIL LARKI RDS IRBAX OBUPO ULFIT VANZA LAKTO GENIV SERMA DATOK TAKSU KARIK ULINA ELETA TAMIM PETRA DEESA BOSAL LABAD NIMAR DEDGI GENON TAMRO GEXUP VUTAD LOTOK KMC BOTEP RADGI ALPOT SILBA KURKA EGREX DAROR RAMSI GASSI KOBOK DEBEN DAVRI SODAK DANOB BOTOB ROSAN KUMLA ASPAK UKUBU TOMSO NALPO SOKAK KIVUS PUSOT AMBOV DATOB LOVEM SERSA PAVAG ITBON KULBA NOLSU TONVO PURNI KUNUS ALSAS DERTO VAXIM RASKI ANKOX KARKU EXOLU VABB9 hrs8.7 hrs136,332 lbAllan Burek
2022-05-24FDX21EBLG LFPG EBLG LNO NIK40 GILOM HUL CIV IDOKO MATIX LFPG0.9 hrs0.7 hrs11,789 lbAllan Burek
2021-07-22FDX21VHHH EBLG VHHH BEKOL IDUMA SHL YIN VEROK NODOG QP RUSES MAMSI SJG AKNAV ELKAL MASRO SUMUN BIPIP IRVED SAMIV RIRKI UDOXO OTGIN WLY IGNAK IPLOL WFX JTG CDX BOKIR PAVMO IDVEM OMBON ELPAN BESMI XIXAN SUNUV BUKPU ANDIM LELUX LAXEV NOGEX OMGUP IGDON TODOD NIXUK IBANO BIKNO OLMIX IPMUN UPKOT KEXAB FKG VARMI UGPEL IKARA OMKEN SALMO PIBIG TCH SARIN GILAK BURID GOMAL BUSAR AGARO MADEV AGAKO DZG ARMIK SUBOL ULRIP ABIGU BALPI ATRIK ARSAN RUGUS UDATO LUKET ODPUT LANIN EPOLI BASPU ATR TUGLA OBATA ZG UP BASKO LIDUS SUBED SL LOGMU ST INBAL NIBIM ALUGU BAKSU KEPED OSLAK ROKUB UBONA TALID MAKOD UNIGA ABUTO TOBLO OGARA MAPAT RAVOK VALOL ABERO SUBIX POVEL ABAMI NEREL AGENI BATTY LNO EBLG12.2 hrs12 hrs223,043 lbAllan Burek
2021-05-23FDX523KRDD VHHH KRDD KREST AF004 AF005 AF006 SHATA PANGL YZT PRYCE DUGGS HANRY CFSTF ANN UDENE FLIPS BKA MDO NOWEL TED FFITZ WINOR MCG SLEDD ICEEE VALDA ABINA BC GIRLO SOMEG UDADI MOPES BASAD PALAM BUMAT BUSUL DERUD GOPNA RUKAR BISMA BANOT RELDI DIREB SOPIN NILOT GITAK GIRUD LUSAK KUNON LUPAT OBUTA IBOLI OLGIR SUKOP LAPNI BESPA OGNIT PENOK ODEKA MAGIT JMU IGADO HRB EKADO FYU RUSBO OTABO DULEX TGO UKDUM MUDAM BUMDU SOTMU VYK OMDEK ATPIR IGMUD OTKAB LOVTI URDUR EKORO DADGA KILUD BELUM UNTEL GUTOV RUMGU DUDBI ATMEM ESMEB ONIXO HOK UBTAG LKO DAPRO AKUBA LUMKO PAVTU LIG NIVEM BEMAG NNX WYN SANIP NOMAR UBLIM NLG ZUH SIERA CANTO MURRY GOODI MONTY TD RW25R9.1 hrs8.8 hrs286,449 lbRandall Smith
2021-05-21FDX521RJAA KRDD RJAA ASPEN A6R12 OLVAN TAPIR GULBO NOGIX VESET ONEMU OPULO OMOTO OGDEN NYMPH ONEIL 57E80 ONEOX EHM ENA MDO SNOUT EEDEN FRIED SEA ALDER BTG MRTEN FOT ITMOR RW3410.1 hrs9.7 hrs272,537 lbRandall Smith
2021-03-10FDX310KMEM RJAA KMEM CHETO MUDHO GACET LRNCE NIKEI INAYO KK42I KK57G KP72E GFK CFHLT VLN YXE YYE EMSOW ORT RDFLG HRDNG FAI OTZ FRENK GENRI DENUK NB AKISA OLKIP LUNAD KEKOP MITKA SOMEG LUGUT UNEDA TUSER GUNBA TK OKLED LUTEG DELAM BANIT NURBA TUBLA ROMUK OBENA REDNA DOLET PAKLI GUBIS ANIMO AWE ASIBE CHE TOBBY LARCH BUTOS JUGEM GUGBI BONGO ENTAK GURIP SWAMP VIXEN PLEIA KARMA DREAM MCGEE AA455 AA456 AA457 HYDRA PEAKS HARPS RW34L13.3 hrs13.2 hrs175,698 lbRandall Smith
2021-03-09FDX9896KLAX KMEM KLAX CLEEE PKE DRK IRW FSM KMEM3.1 hrs3 hrs34,760 lbAllan Burek